sensor_id;sensor_type;location;lat;lon;timestamp;P1;durP1;ratioP1;P2;durP2;ratioP2
13941;SDS011;7043;51.630;7.254;2024-01-06T00:00:35;30.83;;;25.60;;
13941;SDS011;7043;51.630;7.254;2024-01-06T00:03:02;31.37;;;24.30;;
13941;SDS011;7043;51.630;7.254;2024-01-06T00:05:28;29.97;;;23.87;;
13941;SDS011;7043;51.630;7.254;2024-01-06T00:07:54;29.73;;;23.57;;
13941;SDS011;7043;51.630;7.254;2024-01-06T00:10:19;30.97;;;24.00;;
13941;SDS011;7043;51.630;7.254;2024-01-06T00:12:45;27.53;;;22.20;;
13941;SDS011;7043;51.630;7.254;2024-01-06T00:15:13;31.33;;;23.73;;
13941;SDS011;7043;51.630;7.254;2024-01-06T00:17:39;29.90;;;22.53;;
13941;SDS011;7043;51.630;7.254;2024-01-06T00:20:05;29.87;;;22.87;;
13941;SDS011;7043;51.630;7.254;2024-01-06T00:22:31;30.00;;;24.03;;
13941;SDS011;7043;51.630;7.254;2024-01-06T00:24:57;29.07;;;22.50;;
13941;SDS011;7043;51.630;7.254;2024-01-06T00:27:24;32.07;;;23.17;;
13941;SDS011;7043;51.630;7.254;2024-01-06T00:29:50;32.33;;;23.97;;
13941;SDS011;7043;51.630;7.254;2024-01-06T00:32:16;29.93;;;22.50;;
13941;SDS011;7043;51.630;7.254;2024-01-06T00:34:42;29.03;;;22.03;;
13941;SDS011;7043;51.630;7.254;2024-01-06T00:37:08;30.07;;;23.07;;
13941;SDS011;7043;51.630;7.254;2024-01-06T00:39:34;29.07;;;22.03;;
13941;SDS011;7043;51.630;7.254;2024-01-06T00:42:00;29.50;;;21.87;;
13941;SDS011;7043;51.630;7.254;2024-01-06T00:44:26;29.33;;;21.27;;
13941;SDS011;7043;51.630;7.254;2024-01-06T00:46:52;28.40;;;21.10;;
13941;SDS011;7043;51.630;7.254;2024-01-06T00:49:18;29.40;;;21.33;;
13941;SDS011;7043;51.630;7.254;2024-01-06T00:51:44;30.03;;;22.83;;
13941;SDS011;7043;51.630;7.254;2024-01-06T00:54:10;29.70;;;22.17;;
13941;SDS011;7043;51.630;7.254;2024-01-06T00:56:36;32.90;;;24.50;;
13941;SDS011;7043;51.630;7.254;2024-01-06T00:59:02;31.00;;;22.80;;
13941;SDS011;7043;51.630;7.254;2024-01-06T01:01:28;33.30;;;23.63;;
13941;SDS011;7043;51.630;7.254;2024-01-06T01:03:54;32.90;;;23.53;;
13941;SDS011;7043;51.630;7.254;2024-01-06T01:06:20;31.23;;;22.37;;
13941;SDS011;7043;51.630;7.254;2024-01-06T01:08:46;30.77;;;22.87;;
13941;SDS011;7043;51.630;7.254;2024-01-06T01:11:12;30.00;;;22.73;;
13941;SDS011;7043;51.630;7.254;2024-01-06T01:13:38;32.10;;;24.20;;
13941;SDS011;7043;51.630;7.254;2024-01-06T01:16:04;30.30;;;22.73;;
13941;SDS011;7043;51.630;7.254;2024-01-06T01:18:31;30.83;;;22.73;;
13941;SDS011;7043;51.630;7.254;2024-01-06T01:20:56;30.27;;;23.03;;
13941;SDS011;7043;51.630;7.254;2024-01-06T01:23:22;32.83;;;23.73;;
13941;SDS011;7043;51.630;7.254;2024-01-06T01:25:48;30.87;;;23.10;;
13941;SDS011;7043;51.630;7.254;2024-01-06T01:28:14;32.07;;;23.50;;
13941;SDS011;7043;51.630;7.254;2024-01-06T01:30:40;33.33;;;24.10;;
13941;SDS011;7043;51.630;7.254;2024-01-06T01:33:06;31.97;;;23.80;;
13941;SDS011;7043;51.630;7.254;2024-01-06T01:35:33;34.53;;;24.57;;
13941;SDS011;7043;51.630;7.254;2024-01-06T01:37:58;34.83;;;24.73;;
13941;SDS011;7043;51.630;7.254;2024-01-06T01:40:24;32.57;;;23.50;;
13941;SDS011;7043;51.630;7.254;2024-01-06T01:42:50;33.63;;;23.63;;
13941;SDS011;7043;51.630;7.254;2024-01-06T01:45:16;32.33;;;23.50;;
13941;SDS011;7043;51.630;7.254;2024-01-06T01:47:42;31.00;;;23.77;;
13941;SDS011;7043;51.630;7.254;2024-01-06T01:50:10;31.93;;;23.93;;
13941;SDS011;7043;51.630;7.254;2024-01-06T01:52:37;30.83;;;23.57;;
13941;SDS011;7043;51.630;7.254;2024-01-06T01:55:04;30.83;;;23.80;;
13941;SDS011;7043;51.630;7.254;2024-01-06T01:57:30;31.77;;;23.57;;
13941;SDS011;7043;51.630;7.254;2024-01-06T01:59:56;31.10;;;22.80;;
13941;SDS011;7043;51.630;7.254;2024-01-06T02:02:22;30.03;;;23.83;;
13941;SDS011;7043;51.630;7.254;2024-01-06T02:04:48;32.93;;;24.17;;
13941;SDS011;7043;51.630;7.254;2024-01-06T02:07:14;22.60;;;17.33;;
13941;SDS011;7043;51.630;7.254;2024-01-06T02:09:40;21.67;;;16.07;;
13941;SDS011;7043;51.630;7.254;2024-01-06T02:12:06;21.27;;;15.50;;
13941;SDS011;7043;51.630;7.254;2024-01-06T02:14:32;19.53;;;15.03;;
13941;SDS011;7043;51.630;7.254;2024-01-06T02:16:58;20.67;;;14.90;;
13941;SDS011;7043;51.630;7.254;2024-01-06T02:19:24;21.97;;;14.73;;
13941;SDS011;7043;51.630;7.254;2024-01-06T02:21:52;19.53;;;14.17;;
13941;SDS011;7043;51.630;7.254;2024-01-06T02:24:18;20.67;;;14.10;;
13941;SDS011;7043;51.630;7.254;2024-01-06T02:26:44;18.10;;;14.17;;
13941;SDS011;7043;51.630;7.254;2024-01-06T02:29:10;18.40;;;13.37;;
13941;SDS011;7043;51.630;7.254;2024-01-06T02:31:36;17.20;;;13.27;;
13941;SDS011;7043;51.630;7.254;2024-01-06T02:34:02;17.30;;;13.47;;
13941;SDS011;7043;51.630;7.254;2024-01-06T02:36:28;18.17;;;13.30;;
13941;SDS011;7043;51.630;7.254;2024-01-06T02:38:54;17.63;;;12.97;;
13941;SDS011;7043;51.630;7.254;2024-01-06T02:41:20;20.27;;;13.47;;
13941;SDS011;7043;51.630;7.254;2024-01-06T02:43:46;17.53;;;13.30;;
13941;SDS011;7043;51.630;7.254;2024-01-06T02:46:12;18.43;;;13.67;;
13941;SDS011;7043;51.630;7.254;2024-01-06T02:48:38;18.20;;;13.73;;
13941;SDS011;7043;51.630;7.254;2024-01-06T02:51:04;17.63;;;13.43;;
13941;SDS011;7043;51.630;7.254;2024-01-06T02:53:30;19.57;;;13.97;;
13941;SDS011;7043;51.630;7.254;2024-01-06T02:55:56;17.73;;;13.37;;
13941;SDS011;7043;51.630;7.254;2024-01-06T02:58:23;20.73;;;14.27;;
13941;SDS011;7043;51.630;7.254;2024-01-06T03:00:49;18.90;;;14.20;;
13941;SDS011;7043;51.630;7.254;2024-01-06T03:03:16;18.53;;;13.90;;
13941;SDS011;7043;51.630;7.254;2024-01-06T03:05:42;19.13;;;13.97;;
13941;SDS011;7043;51.630;7.254;2024-01-06T03:08:08;20.00;;;14.40;;
13941;SDS011;7043;51.630;7.254;2024-01-06T03:10:34;19.87;;;14.23;;
13941;SDS011;7043;51.630;7.254;2024-01-06T03:13:01;20.37;;;14.30;;
13941;SDS011;7043;51.630;7.254;2024-01-06T03:15:27;17.90;;;13.20;;
13941;SDS011;7043;51.630;7.254;2024-01-06T03:17:53;19.33;;;14.33;;
13941;SDS011;7043;51.630;7.254;2024-01-06T03:20:19;19.07;;;14.43;;
13941;SDS011;7043;51.630;7.254;2024-01-06T03:22:45;18.90;;;13.03;;
13941;SDS011;7043;51.630;7.254;2024-01-06T03:25:11;18.10;;;13.20;;
13941;SDS011;7043;51.630;7.254;2024-01-06T03:27:37;16.93;;;12.33;;
13941;SDS011;7043;51.630;7.254;2024-01-06T03:30:04;16.70;;;12.63;;
13941;SDS011;7043;51.630;7.254;2024-01-06T03:32:30;20.10;;;14.53;;
13941;SDS011;7043;51.630;7.254;2024-01-06T03:34:56;19.17;;;14.17;;
13941;SDS011;7043;51.630;7.254;2024-01-06T03:37:22;21.20;;;13.93;;
13941;SDS011;7043;51.630;7.254;2024-01-06T03:39:48;19.43;;;13.43;;
13941;SDS011;7043;51.630;7.254;2024-01-06T03:42:13;21.03;;;13.90;;
13941;SDS011;7043;51.630;7.254;2024-01-06T03:44:39;20.03;;;13.87;;
13941;SDS011;7043;51.630;7.254;2024-01-06T03:47:05;19.43;;;13.50;;
13941;SDS011;7043;51.630;7.254;2024-01-06T03:49:31;20.03;;;14.13;;
13941;SDS011;7043;51.630;7.254;2024-01-06T03:51:57;20.07;;;14.30;;
13941;SDS011;7043;51.630;7.254;2024-01-06T03:54:23;20.20;;;14.07;;
13941;SDS011;7043;51.630;7.254;2024-01-06T03:56:49;21.30;;;14.07;;
13941;SDS011;7043;51.630;7.254;2024-01-06T03:59:15;21.37;;;14.13;;
13941;SDS011;7043;51.630;7.254;2024-01-06T04:01:41;21.13;;;14.97;;
13941;SDS011;7043;51.630;7.254;2024-01-06T04:04:07;23.43;;;14.70;;
13941;SDS011;7043;51.630;7.254;2024-01-06T04:06:33;21.83;;;14.97;;
13941;SDS011;7043;51.630;7.254;2024-01-06T04:09:00;22.80;;;15.20;;
13941;SDS011;7043;51.630;7.254;2024-01-06T04:11:26;22.93;;;14.43;;
13941;SDS011;7043;51.630;7.254;2024-01-06T04:13:52;24.10;;;15.93;;
13941;SDS011;7043;51.630;7.254;2024-01-06T04:16:19;26.17;;;17.37;;
13941;SDS011;7043;51.630;7.254;2024-01-06T04:18:45;24.80;;;16.60;;
13941;SDS011;7043;51.630;7.254;2024-01-06T04:21:11;25.33;;;16.90;;
13941;SDS011;7043;51.630;7.254;2024-01-06T04:23:37;25.37;;;17.10;;
13941;SDS011;7043;51.630;7.254;2024-01-06T04:26:03;24.03;;;16.30;;
13941;SDS011;7043;51.630;7.254;2024-01-06T04:28:30;27.10;;;17.27;;
13941;SDS011;7043;51.630;7.254;2024-01-06T04:30:56;26.57;;;17.47;;
13941;SDS011;7043;51.630;7.254;2024-01-06T04:33:21;26.30;;;16.73;;
13941;SDS011;7043;51.630;7.254;2024-01-06T04:35:47;25.50;;;16.73;;
13941;SDS011;7043;51.630;7.254;2024-01-06T04:38:15;26.47;;;16.97;;
13941;SDS011;7043;51.630;7.254;2024-01-06T04:40:41;25.93;;;16.53;;
13941;SDS011;7043;51.630;7.254;2024-01-06T04:43:07;25.20;;;16.73;;
13941;SDS011;7043;51.630;7.254;2024-01-06T04:45:33;22.53;;;13.67;;
13941;SDS011;7043;51.630;7.254;2024-01-06T04:47:59;23.67;;;15.60;;
13941;SDS011;7043;51.630;7.254;2024-01-06T04:50:25;25.60;;;16.70;;
13941;SDS011;7043;51.630;7.254;2024-01-06T04:52:51;25.00;;;16.20;;
13941;SDS011;7043;51.630;7.254;2024-01-06T04:55:17;24.73;;;15.80;;
13941;SDS011;7043;51.630;7.254;2024-01-06T04:57:43;23.70;;;15.67;;
13941;SDS011;7043;51.630;7.254;2024-01-06T05:00:09;22.23;;;14.53;;
13941;SDS011;7043;51.630;7.254;2024-01-06T05:02:35;22.30;;;14.90;;
13941;SDS011;7043;51.630;7.254;2024-01-06T05:05:01;22.10;;;14.17;;
13941;SDS011;7043;51.630;7.254;2024-01-06T05:07:27;22.53;;;14.73;;
13941;SDS011;7043;51.630;7.254;2024-01-06T05:09:53;22.27;;;14.87;;
13941;SDS011;7043;51.630;7.254;2024-01-06T05:12:19;24.43;;;15.60;;
13941;SDS011;7043;51.630;7.254;2024-01-06T05:14:45;25.07;;;15.83;;
13941;SDS011;7043;51.630;7.254;2024-01-06T05:17:11;22.77;;;14.57;;
13941;SDS011;7043;51.630;7.254;2024-01-06T05:19:37;23.67;;;15.27;;
13941;SDS011;7043;51.630;7.254;2024-01-06T05:22:03;24.67;;;16.27;;
13941;SDS011;7043;51.630;7.254;2024-01-06T05:24:29;27.60;;;17.10;;
13941;SDS011;7043;51.630;7.254;2024-01-06T05:26:55;27.50;;;17.57;;
13941;SDS011;7043;51.630;7.254;2024-01-06T05:29:21;25.63;;;17.20;;
13941;SDS011;7043;51.630;7.254;2024-01-06T05:31:47;27.13;;;17.33;;
13941;SDS011;7043;51.630;7.254;2024-01-06T05:34:14;25.00;;;15.97;;
13941;SDS011;7043;51.630;7.254;2024-01-06T05:36:40;24.33;;;15.93;;
13941;SDS011;7043;51.630;7.254;2024-01-06T05:39:06;23.73;;;15.30;;
13941;SDS011;7043;51.630;7.254;2024-01-06T05:41:38;22.73;;;15.63;;
13941;SDS011;7043;51.630;7.254;2024-01-06T05:44:05;22.33;;;15.60;;
13941;SDS011;7043;51.630;7.254;2024-01-06T05:46:31;23.20;;;15.40;;
13941;SDS011;7043;51.630;7.254;2024-01-06T05:48:57;23.20;;;15.90;;
13941;SDS011;7043;51.630;7.254;2024-01-06T05:51:24;24.30;;;16.23;;
13941;SDS011;7043;51.630;7.254;2024-01-06T05:53:50;24.57;;;15.93;;
13941;SDS011;7043;51.630;7.254;2024-01-06T05:56:23;23.00;;;15.63;;
13941;SDS011;7043;51.630;7.254;2024-01-06T05:58:50;22.27;;;15.27;;
13941;SDS011;7043;51.630;7.254;2024-01-06T06:01:16;23.53;;;16.10;;
13941;SDS011;7043;51.630;7.254;2024-01-06T06:03:42;21.23;;;14.57;;
13941;SDS011;7043;51.630;7.254;2024-01-06T06:06:08;23.07;;;15.93;;
13941;SDS011;7043;51.630;7.254;2024-01-06T06:08:34;21.80;;;15.03;;
13941;SDS011;7043;51.630;7.254;2024-01-06T06:11:00;22.33;;;15.97;;
13941;SDS011;7043;51.630;7.254;2024-01-06T06:13:29;22.20;;;14.57;;
13941;SDS011;7043;51.630;7.254;2024-01-06T06:15:55;21.67;;;15.07;;
13941;SDS011;7043;51.630;7.254;2024-01-06T06:18:21;22.23;;;15.33;;
13941;SDS011;7043;51.630;7.254;2024-01-06T06:20:47;21.47;;;15.07;;
13941;SDS011;7043;51.630;7.254;2024-01-06T06:23:13;22.43;;;14.73;;
13941;SDS011;7043;51.630;7.254;2024-01-06T06:25:39;21.17;;;14.63;;
13941;SDS011;7043;51.630;7.254;2024-01-06T06:28:05;22.33;;;15.07;;
13941;SDS011;7043;51.630;7.254;2024-01-06T06:30:32;21.63;;;15.03;;
13941;SDS011;7043;51.630;7.254;2024-01-06T06:32:58;22.77;;;15.67;;
13941;SDS011;7043;51.630;7.254;2024-01-06T06:35:24;23.47;;;15.60;;
13941;SDS011;7043;51.630;7.254;2024-01-06T06:37:50;26.27;;;17.30;;
13941;SDS011;7043;51.630;7.254;2024-01-06T06:40:16;26.97;;;17.57;;
13941;SDS011;7043;51.630;7.254;2024-01-06T06:42:42;24.27;;;16.07;;
13941;SDS011;7043;51.630;7.254;2024-01-06T06:45:08;26.70;;;17.10;;
13941;SDS011;7043;51.630;7.254;2024-01-06T06:47:36;23.27;;;15.27;;
13941;SDS011;7043;51.630;7.254;2024-01-06T06:50:02;25.90;;;16.03;;
13941;SDS011;7043;51.630;7.254;2024-01-06T06:52:28;26.63;;;16.80;;
13941;SDS011;7043;51.630;7.254;2024-01-06T06:54:54;28.07;;;18.50;;
13941;SDS011;7043;51.630;7.254;2024-01-06T06:57:20;28.37;;;18.53;;
13941;SDS011;7043;51.630;7.254;2024-01-06T06:59:46;31.37;;;18.87;;
13941;SDS011;7043;51.630;7.254;2024-01-06T07:02:12;31.63;;;19.57;;
13941;SDS011;7043;51.630;7.254;2024-01-06T07:04:38;29.97;;;18.60;;
13941;SDS011;7043;51.630;7.254;2024-01-06T07:07:04;29.13;;;17.00;;
13941;SDS011;7043;51.630;7.254;2024-01-06T07:09:30;27.27;;;15.90;;
13941;SDS011;7043;51.630;7.254;2024-01-06T07:11:56;24.00;;;15.33;;
13941;SDS011;7043;51.630;7.254;2024-01-06T07:14:22;28.13;;;14.63;;
13941;SDS011;7043;51.630;7.254;2024-01-06T07:16:48;25.03;;;14.33;;
13941;SDS011;7043;51.630;7.254;2024-01-06T07:19:14;28.70;;;16.20;;
13941;SDS011;7043;51.630;7.254;2024-01-06T07:21:40;27.30;;;15.60;;
13941;SDS011;7043;51.630;7.254;2024-01-06T07:24:06;24.87;;;15.03;;
13941;SDS011;7043;51.630;7.254;2024-01-06T07:26:32;26.10;;;16.30;;
13941;SDS011;7043;51.630;7.254;2024-01-06T07:28:58;22.87;;;15.03;;
13941;SDS011;7043;51.630;7.254;2024-01-06T07:31:24;24.37;;;15.23;;
13941;SDS011;7043;51.630;7.254;2024-01-06T07:33:50;22.67;;;12.67;;
13941;SDS011;7043;51.630;7.254;2024-01-06T07:36:16;21.93;;;11.67;;
13941;SDS011;7043;51.630;7.254;2024-01-06T07:38:42;21.97;;;12.60;;
13941;SDS011;7043;51.630;7.254;2024-01-06T07:41:11;24.50;;;13.47;;
13941;SDS011;7043;51.630;7.254;2024-01-06T07:43:37;21.27;;;12.00;;
13941;SDS011;7043;51.630;7.254;2024-01-06T07:46:03;20.73;;;12.43;;
13941;SDS011;7043;51.630;7.254;2024-01-06T07:48:29;23.83;;;13.73;;
13941;SDS011;7043;51.630;7.254;2024-01-06T07:50:55;21.47;;;12.93;;
13941;SDS011;7043;51.630;7.254;2024-01-06T07:53:21;24.23;;;13.57;;
13941;SDS011;7043;51.630;7.254;2024-01-06T07:55:47;26.43;;;14.03;;
13941;SDS011;7043;51.630;7.254;2024-01-06T07:58:13;24.37;;;13.50;;
13941;SDS011;7043;51.630;7.254;2024-01-06T08:00:40;27.73;;;15.47;;
13941;SDS011;7043;51.630;7.254;2024-01-06T08:03:06;27.30;;;15.10;;
13941;SDS011;7043;51.630;7.254;2024-01-06T08:05:32;28.00;;;15.57;;
13941;SDS011;7043;51.630;7.254;2024-01-06T08:07:58;27.70;;;13.93;;
13941;SDS011;7043;51.630;7.254;2024-01-06T08:10:24;25.17;;;13.87;;
13941;SDS011;7043;51.630;7.254;2024-01-06T08:12:50;23.10;;;12.70;;
13941;SDS011;7043;51.630;7.254;2024-01-06T08:15:16;25.97;;;14.40;;
13941;SDS011;7043;51.630;7.254;2024-01-06T08:17:42;23.13;;;12.23;;
13941;SDS011;7043;51.630;7.254;2024-01-06T08:20:08;23.03;;;12.63;;
13941;SDS011;7043;51.630;7.254;2024-01-06T08:22:34;21.00;;;12.23;;
13941;SDS011;7043;51.630;7.254;2024-01-06T08:25:00;17.63;;;10.27;;
13941;SDS011;7043;51.630;7.254;2024-01-06T08:27:27;16.20;;;8.80;;
13941;SDS011;7043;51.630;7.254;2024-01-06T08:29:53;17.47;;;10.63;;
13941;SDS011;7043;51.630;7.254;2024-01-06T08:32:19;18.10;;;10.57;;
13941;SDS011;7043;51.630;7.254;2024-01-06T08:34:45;15.93;;;9.73;;
13941;SDS011;7043;51.630;7.254;2024-01-06T08:37:11;14.53;;;8.77;;
13941;SDS011;7043;51.630;7.254;2024-01-06T08:39:38;12.10;;;8.37;;
13941;SDS011;7043;51.630;7.254;2024-01-06T08:42:04;13.30;;;8.27;;
13941;SDS011;7043;51.630;7.254;2024-01-06T08:44:30;13.47;;;7.90;;
13941;SDS011;7043;51.630;7.254;2024-01-06T08:46:56;10.90;;;6.77;;
13941;SDS011;7043;51.630;7.254;2024-01-06T08:49:22;11.60;;;7.10;;
13941;SDS011;7043;51.630;7.254;2024-01-06T08:51:48;10.57;;;7.10;;
13941;SDS011;7043;51.630;7.254;2024-01-06T08:54:14;13.07;;;7.87;;
13941;SDS011;7043;51.630;7.254;2024-01-06T08:56:40;9.30;;;6.93;;
13941;SDS011;7043;51.630;7.254;2024-01-06T08:59:06;9.97;;;7.03;;
13941;SDS011;7043;51.630;7.254;2024-01-06T09:01:32;9.60;;;7.10;;
13941;SDS011;7043;51.630;7.254;2024-01-06T09:04:01;9.03;;;6.37;;
13941;SDS011;7043;51.630;7.254;2024-01-06T09:06:27;11.63;;;7.03;;
13941;SDS011;7043;51.630;7.254;2024-01-06T09:08:53;10.07;;;6.47;;
13941;SDS011;7043;51.630;7.254;2024-01-06T09:11:19;10.40;;;6.63;;
13941;SDS011;7043;51.630;7.254;2024-01-06T09:13:45;11.47;;;8.00;;
13941;SDS011;7043;51.630;7.254;2024-01-06T09:16:11;11.73;;;7.97;;
13941;SDS011;7043;51.630;7.254;2024-01-06T09:18:37;12.73;;;8.33;;
13941;SDS011;7043;51.630;7.254;2024-01-06T09:21:03;14.00;;;9.13;;
13941;SDS011;7043;51.630;7.254;2024-01-06T09:23:29;13.30;;;9.47;;
13941;SDS011;7043;51.630;7.254;2024-01-06T09:25:56;15.63;;;10.07;;
13941;SDS011;7043;51.630;7.254;2024-01-06T09:28:22;15.40;;;9.87;;
13941;SDS011;7043;51.630;7.254;2024-01-06T09:30:48;16.43;;;11.17;;
13941;SDS011;7043;51.630;7.254;2024-01-06T09:33:17;16.10;;;11.00;;
13941;SDS011;7043;51.630;7.254;2024-01-06T09:35:43;17.33;;;10.67;;
13941;SDS011;7043;51.630;7.254;2024-01-06T09:38:09;17.90;;;11.70;;
13941;SDS011;7043;51.630;7.254;2024-01-06T09:40:35;18.73;;;12.50;;
13941;SDS011;7043;51.630;7.254;2024-01-06T09:43:07;22.03;;;13.17;;
13941;SDS011;7043;51.630;7.254;2024-01-06T09:45:33;21.00;;;13.40;;
13941;SDS011;7043;51.630;7.254;2024-01-06T09:47:59;27.70;;;20.50;;
13941;SDS011;7043;51.630;7.254;2024-01-06T09:50:26;30.03;;;18.37;;
13941;SDS011;7043;51.630;7.254;2024-01-06T09:52:53;26.53;;;16.57;;
13941;SDS011;7043;51.630;7.254;2024-01-06T09:55:28;24.63;;;14.53;;
13941;SDS011;7043;51.630;7.254;2024-01-06T09:57:55;28.30;;;18.57;;
13941;SDS011;7043;51.630;7.254;2024-01-06T10:00:21;34.27;;;22.90;;
13941;SDS011;7043;51.630;7.254;2024-01-06T10:02:47;28.57;;;17.20;;
13941;SDS011;7043;51.630;7.254;2024-01-06T10:05:17;26.17;;;16.57;;
13941;SDS011;7043;51.630;7.254;2024-01-06T10:07:44;31.57;;;16.87;;
13941;SDS011;7043;51.630;7.254;2024-01-06T10:10:10;27.63;;;16.60;;
13941;SDS011;7043;51.630;7.254;2024-01-06T10:12:40;32.30;;;18.87;;
13941;SDS011;7043;51.630;7.254;2024-01-06T10:15:06;32.37;;;18.13;;
13941;SDS011;7043;51.630;7.254;2024-01-06T10:17:33;32.97;;;19.70;;
13941;SDS011;7043;51.630;7.254;2024-01-06T10:19:59;32.67;;;18.30;;
13941;SDS011;7043;51.630;7.254;2024-01-06T10:22:26;37.03;;;20.80;;
13941;SDS011;7043;51.630;7.254;2024-01-06T10:24:52;32.03;;;19.23;;
13941;SDS011;7043;51.630;7.254;2024-01-06T10:27:18;36.30;;;20.90;;
13941;SDS011;7043;51.630;7.254;2024-01-06T10:29:44;35.13;;;20.60;;
13941;SDS011;7043;51.630;7.254;2024-01-06T10:32:10;34.00;;;19.80;;
13941;SDS011;7043;51.630;7.254;2024-01-06T10:34:36;32.70;;;20.00;;
13941;SDS011;7043;51.630;7.254;2024-01-06T10:37:02;32.53;;;18.37;;
13941;SDS011;7043;51.630;7.254;2024-01-06T10:39:28;29.00;;;18.10;;
13941;SDS011;7043;51.630;7.254;2024-01-06T10:41:54;26.40;;;18.07;;
13941;SDS011;7043;51.630;7.254;2024-01-06T10:44:24;27.03;;;17.67;;
13941;SDS011;7043;51.630;7.254;2024-01-06T10:46:50;27.83;;;17.60;;
13941;SDS011;7043;51.630;7.254;2024-01-06T10:49:17;25.20;;;17.37;;
13941;SDS011;7043;51.630;7.254;2024-01-06T10:51:46;26.87;;;17.97;;
13941;SDS011;7043;51.630;7.254;2024-01-06T10:54:14;25.53;;;17.87;;
13941;SDS011;7043;51.630;7.254;2024-01-06T10:56:41;29.50;;;18.30;;
13941;SDS011;7043;51.630;7.254;2024-01-06T10:59:08;30.53;;;18.97;;
13941;SDS011;7043;51.630;7.254;2024-01-06T11:01:34;29.73;;;19.13;;
13941;SDS011;7043;51.630;7.254;2024-01-06T11:04:01;33.90;;;19.90;;
13941;SDS011;7043;51.630;7.254;2024-01-06T11:06:31;32.63;;;18.93;;
13941;SDS011;7043;51.630;7.254;2024-01-06T11:11:27;31.93;;;19.23;;
13941;SDS011;7043;51.630;7.254;2024-01-06T11:14:15;32.20;;;19.10;;
13941;SDS011;7043;51.630;7.254;2024-01-06T11:16:40;30.50;;;17.17;;
13941;SDS011;7043;51.630;7.254;2024-01-06T11:21:51;33.33;;;19.47;;
13941;SDS011;7043;51.630;7.254;2024-01-06T11:24:19;33.50;;;19.93;;
13941;SDS011;7043;51.630;7.254;2024-01-06T11:26:49;31.17;;;18.00;;
13941;SDS011;7043;51.630;7.254;2024-01-06T11:29:15;28.83;;;17.60;;
13941;SDS011;7043;51.630;7.254;2024-01-06T11:31:41;27.37;;;17.17;;
13941;SDS011;7043;51.630;7.254;2024-01-06T11:34:15;31.87;;;19.57;;
13941;SDS011;7043;51.630;7.254;2024-01-06T11:36:43;31.27;;;18.23;;
13941;SDS011;7043;51.630;7.254;2024-01-06T11:39:33;33.60;;;18.47;;
13941;SDS011;7043;51.630;7.254;2024-01-06T11:41:55;28.77;;;17.57;;
13941;SDS011;7043;51.630;7.254;2024-01-06T11:44:26;28.53;;;18.07;;
13941;SDS011;7043;51.630;7.254;2024-01-06T11:46:55;29.17;;;18.37;;
13941;SDS011;7043;51.630;7.254;2024-01-06T11:49:22;29.27;;;18.50;;
13941;SDS011;7043;51.630;7.254;2024-01-06T11:51:52;28.77;;;18.20;;
13941;SDS011;7043;51.630;7.254;2024-01-06T11:54:18;29.00;;;17.23;;
13941;SDS011;7043;51.630;7.254;2024-01-06T11:56:45;31.03;;;19.27;;
13941;SDS011;7043;51.630;7.254;2024-01-06T11:59:11;30.37;;;18.97;;
13941;SDS011;7043;51.630;7.254;2024-01-06T12:01:37;30.97;;;17.50;;
13941;SDS011;7043;51.630;7.254;2024-01-06T12:04:04;29.90;;;18.30;;
13941;SDS011;7043;51.630;7.254;2024-01-06T12:06:30;32.20;;;20.73;;
13941;SDS011;7043;51.630;7.254;2024-01-06T12:09:03;30.80;;;19.33;;
13941;SDS011;7043;51.630;7.254;2024-01-06T12:11:29;27.77;;;18.03;;
13941;SDS011;7043;51.630;7.254;2024-01-06T12:13:55;25.90;;;16.73;;
13941;SDS011;7043;51.630;7.254;2024-01-06T12:16:22;26.73;;;17.93;;
13941;SDS011;7043;51.630;7.254;2024-01-06T12:18:51;22.90;;;14.50;;
13941;SDS011;7043;51.630;7.254;2024-01-06T12:21:20;19.73;;;13.40;;
13941;SDS011;7043;51.630;7.254;2024-01-06T12:23:46;23.07;;;15.73;;
13941;SDS011;7043;51.630;7.254;2024-01-06T12:26:12;21.90;;;15.00;;
13941;SDS011;7043;51.630;7.254;2024-01-06T12:28:38;23.10;;;13.73;;
13941;SDS011;7043;51.630;7.254;2024-01-06T12:31:04;20.23;;;13.40;;
13941;SDS011;7043;51.630;7.254;2024-01-06T12:33:30;22.43;;;14.10;;
13941;SDS011;7043;51.630;7.254;2024-01-06T12:35:57;24.67;;;15.57;;
13941;SDS011;7043;51.630;7.254;2024-01-06T12:38:23;23.30;;;14.30;;
13941;SDS011;7043;51.630;7.254;2024-01-06T12:40:52;20.57;;;12.27;;
13941;SDS011;7043;51.630;7.254;2024-01-06T12:43:19;20.43;;;12.63;;
13941;SDS011;7043;51.630;7.254;2024-01-06T12:45:45;20.37;;;11.43;;
13941;SDS011;7043;51.630;7.254;2024-01-06T12:48:11;18.77;;;12.13;;
13941;SDS011;7043;51.630;7.254;2024-01-06T12:50:37;18.67;;;12.17;;
13941;SDS011;7043;51.630;7.254;2024-01-06T12:53:03;20.20;;;12.37;;
13941;SDS011;7043;51.630;7.254;2024-01-06T12:55:29;18.90;;;12.97;;
13941;SDS011;7043;51.630;7.254;2024-01-06T12:57:55;20.70;;;13.03;;
13941;SDS011;7043;51.630;7.254;2024-01-06T13:00:21;20.63;;;12.57;;
13941;SDS011;7043;51.630;7.254;2024-01-06T13:02:47;23.00;;;14.10;;
13941;SDS011;7043;51.630;7.254;2024-01-06T13:05:13;21.47;;;13.23;;
13941;SDS011;7043;51.630;7.254;2024-01-06T13:07:39;21.47;;;13.80;;
13941;SDS011;7043;51.630;7.254;2024-01-06T13:10:05;19.73;;;13.10;;
13941;SDS011;7043;51.630;7.254;2024-01-06T13:12:32;22.20;;;14.60;;
13941;SDS011;7043;51.630;7.254;2024-01-06T13:14:58;21.00;;;12.87;;
13941;SDS011;7043;51.630;7.254;2024-01-06T13:17:24;20.80;;;12.57;;
13941;SDS011;7043;51.630;7.254;2024-01-06T13:19:50;24.97;;;13.47;;
13941;SDS011;7043;51.630;7.254;2024-01-06T13:22:16;21.67;;;14.07;;
13941;SDS011;7043;51.630;7.254;2024-01-06T13:24:45;19.53;;;12.40;;
13941;SDS011;7043;51.630;7.254;2024-01-06T13:27:11;19.73;;;11.77;;
13941;SDS011;7043;51.630;7.254;2024-01-06T13:29:37;19.83;;;11.50;;
13941;SDS011;7043;51.630;7.254;2024-01-06T13:32:04;18.23;;;11.67;;
13941;SDS011;7043;51.630;7.254;2024-01-06T13:34:30;18.37;;;11.27;;
13941;SDS011;7043;51.630;7.254;2024-01-06T13:36:56;18.77;;;10.97;;
13941;SDS011;7043;51.630;7.254;2024-01-06T13:39:23;17.77;;;10.47;;
13941;SDS011;7043;51.630;7.254;2024-01-06T13:41:49;17.20;;;11.07;;
13941;SDS011;7043;51.630;7.254;2024-01-06T13:44:15;18.23;;;11.90;;
13941;SDS011;7043;51.630;7.254;2024-01-06T13:46:41;20.77;;;13.43;;
13941;SDS011;7043;51.630;7.254;2024-01-06T13:49:10;20.60;;;13.70;;
13941;SDS011;7043;51.630;7.254;2024-01-06T13:51:37;19.03;;;12.60;;
13941;SDS011;7043;51.630;7.254;2024-01-06T13:54:03;21.67;;;13.47;;
13941;SDS011;7043;51.630;7.254;2024-01-06T13:56:29;19.97;;;13.13;;
13941;SDS011;7043;51.630;7.254;2024-01-06T13:58:55;23.83;;;14.97;;
13941;SDS011;7043;51.630;7.254;2024-01-06T14:01:20;21.57;;;13.33;;
13941;SDS011;7043;51.630;7.254;2024-01-06T14:03:48;23.70;;;14.23;;
13941;SDS011;7043;51.630;7.254;2024-01-06T14:06:14;24.77;;;16.20;;
13941;SDS011;7043;51.630;7.254;2024-01-06T14:08:42;25.70;;;16.10;;
13941;SDS011;7043;51.630;7.254;2024-01-06T14:11:08;23.77;;;16.87;;
13941;SDS011;7043;51.630;7.254;2024-01-06T14:13:34;26.47;;;17.93;;
13941;SDS011;7043;51.630;7.254;2024-01-06T14:16:00;24.33;;;14.90;;
13941;SDS011;7043;51.630;7.254;2024-01-06T14:18:26;22.83;;;15.57;;
13941;SDS011;7043;51.630;7.254;2024-01-06T14:20:52;26.13;;;16.50;;
13941;SDS011;7043;51.630;7.254;2024-01-06T14:23:20;25.30;;;15.63;;
13941;SDS011;7043;51.630;7.254;2024-01-06T14:25:46;27.97;;;16.60;;
13941;SDS011;7043;51.630;7.254;2024-01-06T14:28:12;25.47;;;17.67;;
13941;SDS011;7043;51.630;7.254;2024-01-06T14:30:38;26.77;;;16.93;;
13941;SDS011;7043;51.630;7.254;2024-01-06T14:33:04;25.83;;;16.30;;
13941;SDS011;7043;51.630;7.254;2024-01-06T14:35:30;28.17;;;17.10;;